Terminal Aerodrome Forecast
Issued by NWS Spokane, WA

Home | Current Version | Previous Version | Text Only | Print | Product List | Glossary On
Versions: 1 2 3 4 5 6 7 8 9 10 11 12
000
FTUS46 KOTX 251120
TAFLWS
TAF
KLWS 251120Z 2512/2612 VRB03KT P6SM SCT070 BKN120
     FM251500 34004KT P6SM SCT050 BKN070 OVC120
     FM251800 35008KT P6SM SCT060 BKN120
     FM260400 17005KT P6SM SCT060 BKN080 BKN150=

USA.gov is the U.S. government's official web portal to all federal, state and local government web resources and services.